createdAt,value
2022-11-04T00:00:10.971Z,38.8460
2022-11-04T00:00:24.112Z,38.8440
2022-11-04T00:00:38.195Z,39.0310
2022-11-04T00:00:49.348Z,38.9430
2022-11-04T00:01:00.598Z,38.9070
2022-11-04T00:01:11.670Z,38.9130
2022-11-04T00:01:22.888Z,38.8900
2022-11-04T00:01:33.949Z,38.8840
2022-11-04T00:01:45.026Z,38.8900
2022-11-04T00:01:56.227Z,38.8790
2022-11-04T00:02:07.581Z,38.8730
2022-11-04T00:02:18.779Z,38.9070
2022-11-04T00:02:29.994Z,38.9070
2022-11-04T00:02:41.127Z,38.9260
2022-11-04T00:02:52.282Z,38.9190
2022-11-04T00:03:03.370Z,38.9070
2022-11-04T00:03:14.409Z,38.8500
2022-11-04T00:03:25.459Z,38.8040
2022-11-04T00:03:36.649Z,38.7730
2022-11-04T00:03:47.680Z,38.8150
2022-11-04T00:03:58.729Z,38.8590
2022-11-04T00:04:09.930Z,38.8910
2022-11-04T00:04:21.005Z,38.9160
2022-11-04T00:04:32.065Z,38.8950
2022-11-04T00:04:43.209Z,38.9130
2022-11-04T00:04:54.359Z,38.9220
2022-11-04T00:05:05.428Z,38.9340
2022-11-04T00:05:16.488Z,38.9340
2022-11-04T00:05:27.535Z,38.9340
2022-11-04T00:05:38.569Z,38.8900
2022-11-04T00:05:49.769Z,38.8730
2022-11-04T00:06:00.976Z,38.8670
2022-11-04T00:06:12.172Z,38.8790
2022-11-04T00:06:23.371Z,38.8670
2022-11-04T00:06:34.409Z,38.8790
2022-11-04T00:06:45.460Z,38.8440
2022-11-04T00:06:56.653Z,38.7860
2022-11-04T00:07:07.851Z,38.7860
2022-11-04T00:07:19.049Z,38.7680
2022-11-04T00:07:30.249Z,38.7150
2022-11-04T00:07:41.479Z,38.6620
2022-11-04T00:07:52.649Z,38.6210
2022-11-04T00:08:03.848Z,38.6040
2022-11-04T00:08:15.047Z,38.5570
2022-11-04T00:08:26.249Z,38.5280
2022-11-04T00:08:37.289Z,38.4980
2022-11-04T00:08:48.359Z,38.4690
2022-11-04T00:08:59.554Z,38.4160
2022-11-04T00:09:10.745Z,38.3060
2022-11-04T00:09:21.928Z,38.2520
2022-11-04T00:09:33.133Z,38.2140
2022-11-04T00:09:44.328Z,38.1630
2022-11-04T00:09:55.537Z,38.1210
2022-11-04T00:10:06.734Z,38.1740
2022-11-04T00:10:17.929Z,38.1630
2022-11-04T00:10:29.133Z,38.1590
2022-11-04T00:10:40.169Z,38.1420
2022-11-04T00:10:51.215Z,38.1420
2022-11-04T00:11:02.412Z,38.1190
2022-11-04T00:11:13.614Z,38.0840
2022-11-04T00:11:24.812Z,38.0720
2022-11-04T00:11:36.008Z,38.0780
2022-11-04T00:11:47.209Z,38.1030
2022-11-04T00:11:58.409Z,38.1310
2022-11-04T00:12:09.608Z,38.1080
2022-11-04T00:12:20.810Z,38.0670
2022-11-04T00:12:32.009Z,37.9790
2022-11-04T00:12:43.106Z,37.9450
2022-11-04T00:12:54.138Z,37.8280
2022-11-04T00:13:05.691Z,37.7580
2022-11-04T00:13:17.171Z,37.8450
2022-11-04T00:13:28.329Z,37.8510
2022-11-04T00:13:39.399Z,37.8560
2022-11-04T00:13:50.638Z,37.8510
2022-11-04T00:14:01.708Z,37.7560
2022-11-04T00:14:12.813Z,37.6880
2022-11-04T00:14:24.008Z,37.6010
2022-11-04T00:14:35.211Z,37.5020
2022-11-04T00:14:46.250Z,37.4490
2022-11-04T00:14:57.298Z,37.4730
2022-11-04T00:15:08.489Z,37.5610
2022-11-04T00:15:19.528Z,37.5420
2022-11-04T00:15:30.569Z,37.4960
2022-11-04T00:15:41.770Z,37.4630
2022-11-04T00:15:52.810Z,37.4380
2022-11-04T00:16:03.888Z,37.4270
2022-11-04T00:16:15.049Z,37.3760
2022-11-04T00:16:26.250Z,37.3630
2022-11-04T00:16:37.292Z,37.3120
2022-11-04T00:16:48.330Z,37.2580
2022-11-04T00:16:59.382Z,37.2520
2022-11-04T00:17:10.439Z,37.2520
2022-11-04T00:17:21.614Z,37.2700
2022-11-04T00:17:32.809Z,37.2580
2022-11-04T00:17:44.032Z,37.2300
2022-11-04T00:17:55.210Z,37.1890
2022-11-04T00:18:06.409Z,37.1490
2022-11-04T00:18:17.608Z,37.1380
2022-11-04T00:18:28.808Z,37.1360
2022-11-04T00:18:40.009Z,37.1070
2022-11-04T00:18:51.208Z,37.0790
2022-11-04T00:19:02.279Z,37.0600
2022-11-04T00:19:13.349Z,37.0470
2022-11-04T00:19:24.507Z,37.0220
2022-11-04T00:19:35.689Z,37.0170
2022-11-04T00:19:46.891Z,36.9770
2022-11-04T00:19:58.089Z,36.9880
2022-11-04T00:20:09.288Z,36.9510
2022-11-04T00:20:20.328Z,36.9400
2022-11-04T00:20:31.371Z,36.8240
2022-11-04T00:20:42.579Z,36.7890
2022-11-04T00:20:53.768Z,36.8170
2022-11-04T00:21:04.809Z,36.7890
2022-11-04T00:21:15.858Z,36.7600
2022-11-04T00:21:27.050Z,36.7190
2022-11-04T00:21:38.248Z,36.6740
2022-11-04T00:21:49.448Z,36.6220
2022-11-04T00:22:00.519Z,36.5880
2022-11-04T00:22:11.568Z,36.5750
2022-11-04T00:22:22.729Z,36.5930
2022-11-04T00:22:33.929Z,36.6040
2022-11-04T00:22:45.149Z,36.6220
2022-11-04T00:22:56.329Z,36.5800
2022-11-04T00:23:07.897Z,36.5880
2022-11-04T00:23:19.089Z,36.6100
2022-11-04T00:23:30.178Z,36.5460
2022-11-04T00:23:41.248Z,36.5460
2022-11-04T00:23:52.329Z,36.5630
2022-11-04T00:24:03.414Z,36.5300
2022-11-04T00:24:14.428Z,36.5460
2022-11-04T00:24:25.609Z,36.5070
2022-11-04T00:24:36.809Z,36.5190
2022-11-04T00:24:48.010Z,36.5130
2022-11-04T00:24:59.208Z,36.5020
2022-11-04T00:25:10.408Z,36.4830
2022-11-04T00:25:21.458Z,36.4440
2022-11-04T00:25:32.607Z,36.4150
2022-11-04T00:25:43.718Z,36.4030
2022-11-04T00:25:54.888Z,36.3690
2022-11-04T00:26:05.929Z,36.4030
2022-11-04T00:26:16.970Z,36.4270
2022-11-04T00:26:28.021Z,36.3350
2022-11-04T00:26:39.050Z,36.2920
2022-11-04T00:26:50.269Z,36.3090
2022-11-04T00:27:01.459Z,36.2920
2022-11-04T00:27:12.649Z,36.2980
2022-11-04T00:27:23.848Z,36.2920
2022-11-04T00:27:35.057Z,36.3090
2022-11-04T00:27:46.280Z,36.2060
2022-11-04T00:27:57.450Z,36.1590
2022-11-04T00:28:08.708Z,36.1870
2022-11-04T00:28:20.191Z,36.2410
2022-11-04T00:28:31.368Z,36.1960
2022-11-04T00:28:42.569Z,36.1320
2022-11-04T00:28:53.770Z,36.0800
2022-11-04T00:29:04.979Z,36.0680
2022-11-04T00:29:16.169Z,36.0450
2022-11-04T00:29:27.209Z,35.9880
2022-11-04T00:29:38.250Z,35.9430
2022-11-04T00:29:49.448Z,35.9080
2022-11-04T00:30:00.648Z,35.9080
2022-11-04T00:30:11.721Z,35.9020
2022-11-04T00:30:22.782Z,35.8960
2022-11-04T00:30:33.819Z,35.8760
2022-11-04T00:30:44.878Z,35.8760
2022-11-04T00:30:56.010Z,35.8310
2022-11-04T00:31:07.217Z,35.7900
2022-11-04T00:31:18.409Z,35.8140
2022-11-04T00:31:29.515Z,35.8890
2022-11-04T00:31:40.558Z,35.9000
2022-11-04T00:31:51.690Z,35.9000
2022-11-04T00:32:02.894Z,35.8800
2022-11-04T00:32:13.929Z,35.9270
2022-11-04T00:32:24.981Z,35.8800
2022-11-04T00:32:36.171Z,35.9230
2022-11-04T00:32:47.341Z,35.9870
2022-11-04T00:32:58.568Z,35.9510
2022-11-04T00:33:09.769Z,35.9230
2022-11-04T00:33:20.968Z,35.8890
2022-11-04T00:33:32.168Z,35.8650
2022-11-04T00:33:43.221Z,35.8580
2022-11-04T00:33:54.291Z,35.8460
2022-11-04T00:34:05.458Z,35.8630
2022-11-04T00:34:16.647Z,35.8580
2022-11-04T00:34:27.864Z,35.7480
2022-11-04T00:34:39.051Z,35.6910
2022-11-04T00:34:50.105Z,35.6110
2022-11-04T00:35:01.158Z,35.5870
2022-11-04T00:35:12.329Z,35.6340
2022-11-04T00:35:23.528Z,35.6000
2022-11-04T00:35:34.730Z,35.5740
2022-11-04T00:35:45.930Z,35.6060
2022-11-04T00:35:57.130Z,35.7090
2022-11-04T00:36:08.329Z,35.7630
2022-11-04T00:36:19.527Z,35.7400
2022-11-04T00:36:30.729Z,35.7190
2022-11-04T00:36:41.930Z,35.6910
2022-11-04T00:36:52.975Z,35.6560
2022-11-04T00:37:04.008Z,35.6450
2022-11-04T00:37:15.208Z,35.6870
2022-11-04T00:37:26.414Z,35.6540
2022-11-04T00:37:37.609Z,35.6590
2022-11-04T00:37:48.838Z,35.6300
2022-11-04T00:38:00.009Z,35.5620
2022-11-04T00:38:11.313Z,35.5620
2022-11-04T00:38:22.406Z,35.5210
2022-11-04T00:38:33.608Z,35.4630
2022-11-04T00:38:44.809Z,35.3950
2022-11-04T00:38:56.008Z,35.3660
2022-11-04T00:39:07.233Z,35.3500
2022-11-04T00:39:18.408Z,35.2540
2022-11-04T00:39:29.611Z,35.1850
2022-11-04T00:39:40.809Z,35.1520
2022-11-04T00:39:51.848Z,35.1280
2022-11-04T00:40:02.888Z,35.1630
2022-11-04T00:40:14.090Z,35.2710
2022-11-04T00:40:25.287Z,35.2880
2022-11-04T00:40:36.489Z,35.3060
2022-11-04T00:40:47.695Z,35.3010
2022-11-04T00:40:58.736Z,35.3010
2022-11-04T00:41:09.780Z,35.2760
2022-11-04T00:41:20.970Z,35.2760
2022-11-04T00:41:32.169Z,35.2070
2022-11-04T00:41:43.383Z,35.1620
2022-11-04T00:41:54.439Z,35.1570
2022-11-04T00:42:05.492Z,35.1400
2022-11-04T00:42:16.647Z,35.1740
2022-11-04T00:42:27.849Z,35.1800
2022-11-04T00:42:39.049Z,35.2130
2022-11-04T00:42:50.278Z,35.1900
2022-11-04T00:43:01.448Z,35.0830
2022-11-04T00:43:12.649Z,35.0080
2022-11-04T00:43:23.859Z,35.0600
2022-11-04T00:43:35.048Z,35.0250
2022-11-04T00:43:46.248Z,34.9750
2022-11-04T00:43:57.456Z,34.9340
2022-11-04T00:44:08.498Z,34.9400
2022-11-04T00:44:19.538Z,34.9570
2022-11-04T00:44:30.729Z,34.9490
2022-11-04T00:44:41.929Z,34.8810
2022-11-04T00:44:53.130Z,34.8690
2022-11-04T00:45:04.328Z,34.8690
2022-11-04T00:45:15.379Z,34.8580
2022-11-04T00:45:26.425Z,34.8720
2022-11-04T00:45:37.609Z,34.9350
2022-11-04T00:45:48.809Z,34.9610
2022-11-04T00:46:00.014Z,35.0020
2022-11-04T00:46:11.218Z,34.9820
2022-11-04T00:46:22.415Z,35.0230
2022-11-04T00:46:33.609Z,35.0450
2022-11-04T00:46:44.808Z,34.9670
2022-11-04T00:46:56.013Z,34.8930
2022-11-04T00:47:07.208Z,34.8640
2022-11-04T00:47:18.259Z,34.9070
2022-11-04T00:47:29.320Z,34.8960
2022-11-04T00:47:40.488Z,34.8810
2022-11-04T00:47:51.719Z,34.8640
2022-11-04T00:48:02.890Z,34.8530
2022-11-04T00:48:14.091Z,34.8530
2022-11-04T00:48:25.288Z,34.8610
2022-11-04T00:48:36.491Z,34.8440
2022-11-04T00:48:47.688Z,34.8210
2022-11-04T00:48:58.888Z,34.7790
2022-11-04T00:49:10.099Z,34.7570
2022-11-04T00:49:21.128Z,34.7390
2022-11-04T00:49:32.168Z,34.7370
2022-11-04T00:49:43.370Z,34.7590
2022-11-04T00:49:54.574Z,34.7490
2022-11-04T00:50:05.787Z,34.7210
2022-11-04T00:50:16.969Z,34.7070
2022-11-04T00:50:28.177Z,34.7290
2022-11-04T00:50:39.368Z,34.7590
2022-11-04T00:50:50.569Z,34.7640
2022-11-04T00:51:01.814Z,34.7810
2022-11-04T00:51:25.168Z,34.7750
2022-11-04T00:51:36.328Z,34.7860
2022-11-04T00:51:47.530Z,34.7530
2022-11-04T00:51:58.732Z,34.6840
2022-11-04T00:52:09.818Z,34.6320
2022-11-04T00:52:20.896Z,34.5990
2022-11-04T00:52:32.008Z,34.5820
2022-11-04T00:52:43.069Z,34.6000
2022-11-04T00:52:54.179Z,34.6050
2022-11-04T00:53:05.491Z,34.6220
2022-11-04T00:53:16.851Z,34.6510
2022-11-04T00:53:28.015Z,34.6460
2022-11-04T00:53:39.209Z,34.6740
2022-11-04T00:53:50.421Z,34.7480
2022-11-04T00:54:01.611Z,34.7480
2022-11-04T00:54:12.834Z,34.7130
2022-11-04T00:54:24.008Z,34.6840
2022-11-04T00:54:35.208Z,34.6490
2022-11-04T00:54:46.408Z,34.5990
2022-11-04T00:54:57.614Z,34.6210
2022-11-04T00:55:08.810Z,34.7180
2022-11-04T00:55:19.848Z,34.6960
2022-11-04T00:55:30.888Z,34.7070
2022-11-04T00:55:42.091Z,34.6670
2022-11-04T00:55:53.288Z,34.6040
2022-11-04T00:56:04.492Z,34.5880
2022-11-04T00:56:15.691Z,34.5700
2022-11-04T00:56:26.896Z,34.5530
2022-11-04T00:56:38.090Z,34.5530
2022-11-04T00:56:49.288Z,34.4900
2022-11-04T00:57:00.329Z,34.3990
2022-11-04T00:57:11.378Z,34.3990
2022-11-04T00:57:22.449Z,34.4280
2022-11-04T00:57:33.523Z,34.4670
2022-11-04T00:57:44.649Z,34.5190
2022-11-04T00:57:55.898Z,34.4760
2022-11-04T00:58:07.049Z,34.4410
2022-11-04T00:58:18.248Z,34.4360
2022-11-04T00:58:29.329Z,34.4240
2022-11-04T00:58:40.389Z,34.4240
2022-11-04T00:58:51.533Z,34.4640
2022-11-04T00:59:02.731Z,34.4820
2022-11-04T00:59:14.718Z,34.4620
2022-11-04T00:59:25.849Z,34.4000
2022-11-04T00:59:36.890Z,34.3220
2022-11-04T00:59:47.950Z,34.2540
2022-11-04T00:59:59.049Z,34.1890
2022-11-04T01:00:10.249Z,34.2060
2022-11-04T01:00:21.448Z,34.2160
2022-11-04T01:00:32.649Z,34.2470
2022-11-04T01:00:43.848Z,34.2860
2022-11-04T01:00:55.009Z,34.2490
2022-11-04T01:01:06.079Z,34.2270
2022-11-04T01:01:17.196Z,34.1850
2022-11-04T01:01:28.446Z,34.1680
2022-11-04T01:01:39.720Z,34.1330
2022-11-04T01:01:51.288Z,34.1740
2022-11-04T01:02:02.793Z,34.1910
2022-11-04T01:02:14.350Z,34.2020
2022-11-04T01:02:25.816Z,34.2310
2022-11-04T01:02:37.389Z,34.2430
2022-11-04T01:02:48.819Z,34.2020
2022-11-04T01:02:59.909Z,34.1570
2022-11-04T01:03:11.654Z,34.1170
2022-11-04T01:03:22.928Z,34.1230
2022-11-04T01:03:34.089Z,34.1110
2022-11-04T01:03:45.291Z,34.1270
2022-11-04T01:03:56.500Z,34.1790
2022-11-04T01:04:07.570Z,34.1960
2022-11-04T01:04:18.638Z,34.1920
2022-11-04T01:04:29.780Z,34.1300
2022-11-04T01:04:40.970Z,34.1010
2022-11-04T01:04:52.168Z,34.0680
2022-11-04T01:05:03.369Z,34.0650
2022-11-04T01:05:14.420Z,34.0480
2022-11-04T01:05:25.505Z,34.0380
2022-11-04T01:05:36.650Z,34.0710
2022-11-04T01:05:47.848Z,34.1450
2022-11-04T01:05:59.060Z,34.1000
2022-11-04T01:06:10.251Z,34.1150
2022-11-04T01:06:21.448Z,34.1260
2022-11-04T01:06:32.650Z,34.1100
2022-11-04T01:06:43.852Z,34.0920
2022-11-04T01:06:55.053Z,34.0690
2022-11-04T01:07:06.249Z,34.0690
2022-11-04T01:07:17.300Z,34.0860
2022-11-04T01:07:28.389Z,34.0640
2022-11-04T01:07:43.504Z,34.0530
2022-11-04T01:07:54.927Z,34.1660
2022-11-04T01:08:06.120Z,34.1000
2022-11-04T01:08:17.168Z,34.0420
2022-11-04T01:08:28.229Z,33.9910
2022-11-04T01:08:39.303Z,33.9680
2022-11-04T01:08:50.348Z,33.9680
2022-11-04T01:09:01.449Z,34.0070
2022-11-04T01:09:12.658Z,34.0120
2022-11-04T01:09:23.873Z,34.0380
2022-11-04T01:09:35.049Z,34.0490
2022-11-04T01:09:46.249Z,34.0210
2022-11-04T01:09:57.454Z,33.9750
2022-11-04T01:10:08.651Z,33.9190
2022-11-04T01:10:19.854Z,33.9060
2022-11-04T01:10:31.049Z,33.8990
2022-11-04T01:10:42.100Z,33.8830
2022-11-04T01:10:53.158Z,33.8990
2022-11-04T01:11:04.330Z,33.9100
2022-11-04T01:11:15.539Z,33.8830
2022-11-04T01:11:26.734Z,33.8770
2022-11-04T01:11:37.930Z,33.8940
2022-11-04T01:11:48.981Z,33.9510
2022-11-04T01:12:00.049Z,34.0180
2022-11-04T01:12:11.209Z,33.9900
2022-11-04T01:12:22.418Z,33.9620
2022-11-04T01:12:33.462Z,33.9680
2022-11-04T01:12:44.529Z,33.9510
2022-11-04T01:12:55.578Z,33.9950
2022-11-04T01:13:07.026Z,33.9680
2022-11-04T01:13:18.449Z,33.9680
2022-11-04T01:13:29.608Z,33.9050
2022-11-04T01:13:40.812Z,33.8590
2022-11-04T01:13:51.878Z,33.8370
2022-11-04T01:14:02.948Z,33.8200
2022-11-04T01:14:14.088Z,33.9000
2022-11-04T01:14:25.300Z,34.0650
2022-11-04T01:14:36.489Z,34.1270
2022-11-04T01:14:47.689Z,34.1040
2022-11-04T01:14:58.891Z,34.0580
2022-11-04T01:15:10.088Z,34.0360
2022-11-04T01:15:21.289Z,34.0120
2022-11-04T01:15:32.488Z,33.9950
2022-11-04T01:15:43.688Z,34.0010
2022-11-04T01:15:54.730Z,34.0010
2022-11-04T01:16:05.779Z,34.0360
2022-11-04T01:16:17.013Z,34.0250
2022-11-04T01:16:39.369Z,33.8030
2022-11-04T01:16:50.569Z,33.7130
2022-11-04T01:17:01.770Z,33.6670
2022-11-04T01:17:12.968Z,33.6780
2022-11-04T01:17:24.174Z,33.6560
2022-11-04T01:17:35.369Z,33.6210
2022-11-04T01:17:46.569Z,33.6150
2022-11-04T01:17:57.640Z,33.6150
2022-11-04T01:18:09.221Z,33.5990
2022-11-04T01:18:20.528Z,33.6570
2022-11-04T01:18:31.689Z,33.6850
2022-11-04T01:18:42.889Z,33.6970
2022-11-04T01:18:53.934Z,33.7190
2022-11-04T01:19:05.006Z,33.7250
2022-11-04T01:19:16.170Z,33.7530
2022-11-04T01:19:27.369Z,33.7800
2022-11-04T01:19:38.568Z,33.7180
2022-11-04T01:19:49.769Z,33.6610
2022-11-04T01:20:00.808Z,33.6610
2022-11-04T01:20:11.860Z,33.6790
2022-11-04T01:20:23.047Z,33.6970
2022-11-04T01:20:34.099Z,33.7080
2022-11-04T01:20:45.159Z,33.6850
2022-11-04T01:20:56.328Z,33.6570
2022-11-04T01:21:07.888Z,33.7030
2022-11-04T01:21:19.049Z,33.7250
2022-11-04T01:21:30.248Z,33.7580
2022-11-04T01:21:41.449Z,33.7740
2022-11-04T01:21:52.658Z,33.7460
2022-11-04T01:22:03.849Z,33.7290
2022-11-04T01:22:15.050Z,33.7920
2022-11-04T01:22:26.248Z,33.7520
2022-11-04T01:22:37.312Z,33.7130
2022-11-04T01:22:48.369Z,33.6950
2022-11-04T01:22:59.418Z,33.6510
2022-11-04T01:23:10.509Z,33.5940
2022-11-04T01:23:21.613Z,33.5610
2022-11-04T01:23:32.809Z,33.5610
2022-11-04T01:23:44.012Z,33.6000
2022-11-04T01:23:55.119Z,33.5990
2022-11-04T01:24:06.179Z,33.5470
2022-11-04T01:24:17.289Z,33.4970
2022-11-04T01:24:28.513Z,33.4920
2022-11-04T01:24:39.529Z,33.5090
2022-11-04T01:24:50.579Z,33.5030
2022-11-04T01:25:01.631Z,33.5150
2022-11-04T01:25:12.669Z,33.5040
2022-11-04T01:25:23.848Z,33.5040
2022-11-04T01:25:35.054Z,33.5040
2022-11-04T01:25:46.251Z,33.4980
2022-11-04T01:25:57.453Z,33.4590
2022-11-04T01:26:08.648Z,33.4540
2022-11-04T01:26:19.848Z,33.4700
2022-11-04T01:26:31.049Z,33.5040
2022-11-04T01:26:42.247Z,33.5260
2022-11-04T01:26:53.448Z,33.5150
2022-11-04T01:27:04.648Z,33.4540
2022-11-04T01:27:15.689Z,33.4140
2022-11-04T01:27:26.728Z,33.4140
2022-11-04T01:27:37.929Z,33.3970
2022-11-04T01:27:49.128Z,33.4020
2022-11-04T01:28:00.338Z,33.4410
2022-11-04T01:28:11.630Z,33.4590
2022-11-04T01:28:22.737Z,33.4590
2022-11-04T01:28:33.930Z,33.5040
2022-11-04T01:28:45.140Z,33.5500
2022-11-04T01:28:56.336Z,33.5550
2022-11-04T01:29:07.529Z,33.4810
2022-11-04T01:29:18.579Z,33.4540
2022-11-04T01:29:29.618Z,33.4360
2022-11-04T01:29:40.808Z,33.4510
2022-11-04T01:29:52.015Z,33.4290
2022-11-04T01:30:03.055Z,33.3860
2022-11-04T01:30:14.095Z,33.3680
2022-11-04T01:30:25.214Z,33.3860
2022-11-04T01:30:36.277Z,33.4250
2022-11-04T01:30:47.368Z,33.4680
2022-11-04T01:30:58.576Z,33.4620
2022-11-04T01:31:09.778Z,33.4620
2022-11-04T01:31:20.975Z,33.4450
2022-11-04T01:31:32.168Z,33.4400
2022-11-04T01:31:43.370Z,33.4230
2022-11-04T01:31:54.568Z,33.4280
2022-11-04T01:32:05.679Z,33.4170
2022-11-04T01:32:16.748Z,33.4230
2022-11-04T01:32:27.809Z,33.4450
2022-11-04T01:32:38.868Z,33.4280
2022-11-04T01:32:49.929Z,33.3880
2022-11-04T01:33:01.130Z,33.3720
2022-11-04T01:33:12.357Z,33.3720
2022-11-04T01:33:23.429Z,33.3880
2022-11-04T01:33:34.469Z,33.3830
2022-11-04T01:33:45.618Z,33.3610
2022-11-04T01:33:56.810Z,33.3550
2022-11-04T01:34:07.848Z,33.3590
2022-11-04T01:34:18.889Z,33.4440
2022-11-04T01:34:30.090Z,33.4600
2022-11-04T01:34:43.492Z,33.4600
2022-11-04T01:34:55.088Z,33.5280
2022-11-04T01:35:06.249Z,33.4700
2022-11-04T01:35:17.453Z,33.4290
2022-11-04T01:35:28.655Z,33.4030
2022-11-04T01:35:39.859Z,33.4200
2022-11-04T01:35:51.048Z,33.4140
2022-11-04T01:36:02.265Z,33.3750
2022-11-04T01:36:13.328Z,33.3640
2022-11-04T01:36:24.390Z,33.3520
2022-11-04T01:36:35.532Z,33.3590
2022-11-04T01:36:46.728Z,33.3640
2022-11-04T01:36:57.779Z,33.3460
2022-11-04T01:37:08.847Z,33.3350
2022-11-04T01:37:19.889Z,33.3520
2022-11-04T01:37:30.949Z,33.3460
2022-11-04T01:37:42.091Z,33.3300
2022-11-04T01:37:53.288Z,33.3340
2022-11-04T01:38:04.350Z,33.3670
2022-11-04T01:38:15.441Z,33.3450
2022-11-04T01:38:26.491Z,33.3670
2022-11-04T01:38:37.558Z,33.3730
2022-11-04T01:38:48.658Z,33.4070
2022-11-04T01:38:59.719Z,33.4240
2022-11-04T01:39:10.788Z,33.4240
2022-11-04T01:39:21.932Z,33.3910
2022-11-04T01:39:32.991Z,33.3920
2022-11-04T01:39:44.018Z,33.3980
2022-11-04T01:39:55.209Z,33.3750
2022-11-04T01:40:06.278Z,33.3870
2022-11-04T01:40:17.339Z,33.3980
2022-11-04T01:40:28.488Z,33.3920
2022-11-04T01:40:39.549Z,33.3870
2022-11-04T01:40:50.609Z,33.3870
2022-11-04T01:41:01.779Z,33.3660
2022-11-04T01:41:12.968Z,33.3720
2022-11-04T01:41:24.169Z,33.3750
2022-11-04T01:41:35.374Z,33.3640
2022-11-04T01:41:46.567Z,33.3190
2022-11-04T01:41:57.863Z,33.2850
2022-11-04T01:42:08.970Z,33.2910
2022-11-04T01:42:20.177Z,33.2810
2022-11-04T01:42:31.368Z,33.2800
2022-11-04T01:42:42.423Z,33.2670
2022-11-04T01:42:53.480Z,33.2800
2022-11-04T01:43:04.996Z,33.3240
2022-11-04T01:43:16.218Z,33.4140
2022-11-04T01:43:27.368Z,33.3980
2022-11-04T01:43:38.409Z,33.3700
2022-11-04T01:43:49.451Z,33.3980
2022-11-04T01:44:00.650Z,33.3810
2022-11-04T01:44:11.848Z,33.3460
2022-11-04T01:44:23.048Z,33.3700
2022-11-04T01:44:34.249Z,33.3750
2022-11-04T01:44:45.288Z,33.3750
2022-11-04T01:44:56.328Z,33.3640
2022-11-04T01:45:07.378Z,33.3350
2022-11-04T01:45:18.448Z,33.3020
2022-11-04T01:45:29.608Z,33.2910
2022-11-04T01:45:40.810Z,33.2670
2022-11-04T01:45:51.848Z,33.2560
2022-11-04T01:46:02.898Z,33.2450
2022-11-04T01:46:14.090Z,33.3080
2022-11-04T01:46:25.289Z,33.3300
2022-11-04T01:46:36.489Z,33.2800
2022-11-04T01:46:47.702Z,33.2340
2022-11-04T01:46:58.889Z,33.2390
2022-11-04T01:47:10.087Z,33.2450
2022-11-04T01:47:21.291Z,33.2670
2022-11-04T01:47:32.489Z,33.2510
2022-11-04T01:47:43.689Z,33.2120
2022-11-04T01:47:54.728Z,33.1940
2022-11-04T01:48:05.760Z,33.1830
2022-11-04T01:48:16.997Z,33.1750
2022-11-04T01:48:28.168Z,33.2080
2022-11-04T01:48:39.372Z,33.2190
2022-11-04T01:48:50.568Z,33.2300
2022-11-04T01:49:01.768Z,33.2340
2022-11-04T01:49:12.978Z,33.2390
2022-11-04T01:49:24.172Z,33.2560
2022-11-04T01:49:37.972Z,33.3020
2022-11-04T01:49:52.335Z,33.4440
2022-11-04T01:50:03.528Z,33.4410
2022-11-04T01:50:14.600Z,33.3750
2022-11-04T01:50:25.676Z,33.3350
2022-11-04T01:50:36.808Z,33.3640
2022-11-04T01:50:48.015Z,33.3080
2022-11-04T01:50:59.054Z,33.2730
2022-11-04T01:51:10.099Z,33.3020
2022-11-04T01:51:21.289Z,33.2960
2022-11-04T01:51:32.487Z,33.3300
2022-11-04T01:51:43.688Z,33.3300
2022-11-04T01:51:54.888Z,33.2910
2022-11-04T01:52:05.928Z,33.2670
2022-11-04T01:52:16.969Z,33.2910
2022-11-04T01:52:28.168Z,33.2730
2022-11-04T01:52:39.377Z,33.2850
2022-11-04T01:52:50.571Z,33.2910
2022-11-04T01:53:01.769Z,33.3020
2022-11-04T01:53:12.969Z,33.2620
2022-11-04T01:53:24.209Z,33.2290
2022-11-04T01:53:35.369Z,33.2230
2022-11-04T01:53:46.569Z,33.2290
2022-11-04T01:53:57.769Z,33.2300
2022-11-04T01:54:08.809Z,33.2410
2022-11-04T01:54:19.847Z,33.2650
2022-11-04T01:54:30.888Z,33.2590
2022-11-04T01:54:41.953Z,33.2590
2022-11-04T01:54:53.128Z,33.2290
2022-11-04T01:55:04.329Z,33.2120
2022-11-04T01:55:15.372Z,33.2120
2022-11-04T01:55:26.409Z,33.2180
2022-11-04T01:55:37.468Z,33.2340
2022-11-04T01:55:48.528Z,33.2510
2022-11-04T01:55:59.688Z,33.2560
2022-11-04T01:56:10.888Z,33.2800
2022-11-04T01:56:21.928Z,33.3190
2022-11-04T01:56:32.971Z,33.3460
2022-11-04T01:56:44.179Z,33.3700
2022-11-04T01:56:55.249Z,33.3300
2022-11-04T01:57:06.378Z,33.3130
2022-11-04T01:57:17.454Z,33.2960
2022-11-04T01:57:28.498Z,33.2850
2022-11-04T01:57:39.526Z,33.2730
2022-11-04T01:57:50.729Z,33.2450
2022-11-04T01:58:01.928Z,33.2390
2022-11-04T01:58:13.132Z,33.2290
2022-11-04T01:58:24.328Z,33.2060
2022-11-04T01:58:35.648Z,33.2180
2022-11-04T01:58:46.730Z,33.2390
2022-11-04T01:58:57.928Z,33.2560
2022-11-04T01:59:09.131Z,33.2230
2022-11-04T01:59:20.329Z,33.1940
2022-11-04T01:59:31.531Z,33.2060
2022-11-04T01:59:42.571Z,33.2450
2022-11-04T01:59:53.608Z,33.2560
2022-11-04T02:00:04.816Z,33.3350
2022-11-04T02:00:16.010Z,33.3460
2022-11-04T02:00:27.215Z,33.3190
2022-11-04T02:00:38.408Z,33.2960
2022-11-04T02:00:49.607Z,33.2850
2022-11-04T02:01:00.882Z,33.2450
2022-11-04T02:01:12.098Z,33.1940
2022-11-04T02:01:23.383Z,33.1660
2022-11-04T02:01:34.596Z,33.1660
2022-11-04T02:01:45.937Z,33.1330
2022-11-04T02:01:57.347Z,33.1440
2022-11-04T02:02:08.887Z,33.2060
2022-11-04T02:02:20.311Z,33.2450
2022-11-04T02:02:31.485Z,33.2290
2022-11-04T02:02:42.646Z,33.2180
2022-11-04T02:02:53.777Z,33.2060
2022-11-04T02:03:05.011Z,33.1940
2022-11-04T02:03:16.170Z,33.2140
2022-11-04T02:03:27.369Z,33.2140
2022-11-04T02:03:38.448Z,33.2190
2022-11-04T02:03:49.509Z,33.2120
2022-11-04T02:04:00.649Z,33.1880
2022-11-04T02:04:11.849Z,33.2060
2022-11-04T02:04:22.892Z,33.2390
2022-11-04T02:04:33.927Z,33.2560
2022-11-04T02:04:45.132Z,33.2700
2022-11-04T02:04:56.328Z,33.2620
2022-11-04T02:05:07.529Z,33.2510
2022-11-04T02:05:18.728Z,33.2450
2022-11-04T02:05:29.769Z,33.2380
2022-11-04T02:05:40.810Z,33.2490
2022-11-04T02:05:52.007Z,33.2490
2022-11-04T02:06:03.208Z,33.2820
2022-11-04T02:06:14.408Z,33.2930
2022-11-04T02:06:25.614Z,33.3350
2022-11-04T02:06:36.808Z,33.3180
2022-11-04T02:06:48.008Z,33.3010
2022-11-04T02:06:59.217Z,33.3230
2022-11-04T02:07:10.409Z,33.3510
2022-11-04T02:07:21.608Z,33.3570
2022-11-04T02:07:32.651Z,33.3500
2022-11-04T02:07:43.699Z,33.3500
2022-11-04T02:07:54.894Z,33.3750
2022-11-04T02:08:06.089Z,33.4030
2022-11-04T02:08:17.294Z,33.4300
2022-11-04T02:08:28.488Z,33.4030
2022-11-04T02:08:39.548Z,33.4030
2022-11-04T02:08:50.613Z,33.3970
2022-11-04T02:09:01.818Z,33.3920
2022-11-04T02:09:12.969Z,33.3920
2022-11-04T02:09:24.168Z,33.3510
2022-11-04T02:09:35.208Z,33.3350
2022-11-04T02:09:46.288Z,33.3170
2022-11-04T02:09:57.318Z,33.3280
2022-11-04T02:10:08.389Z,33.3120
2022-11-04T02:10:19.538Z,33.3070
2022-11-04T02:10:30.728Z,33.3050
2022-11-04T02:10:41.768Z,33.3560
2022-11-04T02:10:52.841Z,33.3500
2022-11-04T02:11:04.009Z,33.3500
2022-11-04T02:11:15.119Z,33.3500
2022-11-04T02:11:26.192Z,33.3220
2022-11-04T02:11:37.288Z,33.3910
2022-11-04T02:11:48.328Z,33.4020
2022-11-04T02:11:59.369Z,33.3730
2022-11-04T02:12:10.568Z,33.3220
2022-11-04T02:12:21.768Z,33.2820
2022-11-04T02:12:32.970Z,33.2660
2022-11-04T02:12:44.167Z,33.2770
2022-11-04T02:12:55.211Z,33.2600
2022-11-04T02:13:06.620Z,33.2820
2022-11-04T02:13:18.128Z,33.2830
2022-11-04T02:13:29.289Z,33.2610
2022-11-04T02:13:40.360Z,33.2390
2022-11-04T02:13:51.398Z,33.2390
2022-11-04T02:14:02.451Z,33.2440
2022-11-04T02:14:13.515Z,33.2490
2022-11-04T02:14:24.649Z,33.2430
2022-11-04T02:14:35.848Z,33.2610
2022-11-04T02:14:47.049Z,33.2830
2022-11-04T02:14:58.088Z,33.2780
2022-11-04T02:15:09.208Z,33.2500
2022-11-04T02:15:20.328Z,33.2670
2022-11-04T02:15:31.529Z,33.2670
2022-11-04T02:15:42.732Z,33.2610